CheckWX is a tool to help pilots better visualize weather data.  It is not intended as a substitute for an official pre-flight weather briefing.

10:26:31 UTC

KABE METAR
Lehigh Valley International Airport
Allentown, Pennsylvania, USA
Current

36 mins ago

KABE 260951Z 03012KT 10SM CLR 00/M15 A3020 RMK AO2 SLP229 T00001150
Observed
Mar-26 @ 09:51 UTC
Wind
  • 030° at 12 KTS
Visibility
10 SM
Flight Rules
VFR
Cloud Levels
  • Clear skies
Temperature
C / 32°F
Dewpoint
-15°C / 5°F
Humidity
32%
Altimeter
30.2" Hg
Pressure
1022.9 hPa
Previous

2 hours ago

KABE 260851Z 05006KT 10SM CLR M01/M16 A3017 RMK AO2 SLP218 T10111161 53008
Observed
Mar-26 @ 08:51 UTC
Wind
  • 050° at 6 KTS
Visibility
10 SM
Flight Rules
VFR
Cloud Levels
  • Clear skies
Temperature
-1°C / 30°F
Dewpoint
-16°C / 3°F
Humidity
31%
Altimeter
30.17" Hg
Pressure
1021.8 hPa
Previous

3 hours ago

KABE 260751Z 01007KT 10SM CLR 01/M15 A3015 RMK AO2 SLP213 T00061150
Observed
Mar-26 @ 07:51 UTC
Wind
  • 010° at 7 KTS
Visibility
10 SM
Flight Rules
VFR
Cloud Levels
  • Clear skies
Temperature
C / 34°F
Dewpoint
-15°C / 5°F
Humidity
29%
Altimeter
30.15" Hg
Pressure
1021.3 hPa